METAR Data
IDs: Format: Raw Decoded Include TAF

Data at: 0917 UTC 20 Sep 2018

PAGS 200856Z AUTO 00000KT 10SM CLR 01/M01 A3008 RMK AO2 SLP188 T00061011 401671039 51003 FZRANO
PAGS 200756Z AUTO 00000KT 10SM CLR 02/M01 A3008 RMK AO2 SLP187 T00171006 FZRANO
PAGS 200656Z AUTO 00000KT 10SM CLR 03/01 A3008 RMK AO2 SLP187 T00280011
PAGS 200556Z AUTO 00000KT 10SM CLR 04/01 A3008 RMK AO2 SLP185 T00390006 10167 20039 51005
PAGS 200456Z AUTO 00000KT 10SM CLR 06/02 A3007 RMK AO2 SLP184 T00610017
PAGS 200356Z AUTO 00000KT 10SM CLR 09/02 A3007 RMK AO2 SLP183 T00890022
PAGS 200256Z AUTO 00000KT 10SM CLR 13/01 A3006 RMK AO2 SLP180 T01280006 55005
PAGS 200156Z AUTO 22005KT 10SM OVC090 16/01 A3006 RMK AO2 SLP178 T01560011
PAGS 200056Z AUTO 21006KT 10SM BKN095 17/01 A3006 RMK AO2 SLP181 T01670011
PAGS 192356Z AUTO 20004KT 10SM BKN095 16/02 A3008 RMK AO2 SLP185 T01560017 10156 20083 56016
PAGS 192256Z AUTO 18005KT 10SM CLR 15/03 A3009 RMK AO2 SLP189 T01500028
PAGS 192156Z AUTO 22005KT 10SM CLR 14/04 A3010 RMK AO2 SLP194 T01390039
PAGS 192056Z AUTO 21003KT 10SM CLR 13/04 A3012 RMK AO2 SLP201 T01330039 58010
PAGS 191956Z AUTO 00000KT 10SM CLR 12/04 A3013 RMK AO2 SLP204 T01220039
PAGS 191856Z AUTO 00000KT 10SM CLR 11/04 A3015 RMK AO2 SLP208 T01060039
PAGS 191756Z AUTO 00000KT 10SM CLR 08/03 A3015 RMK AO2 SLP211 T00830028 10083 21039 58002
PAGS 191656Z AUTO 00000KT 10SM CLR 03/00 A3016 RMK AO2 SLP212 T00280000
PAGS 191556Z AUTO 00000KT 10SM CLR M01/M02 A3016 RMK AO2 SLP212 T10111022 FZRANO
PAGS 191456Z AUTO 00000KT 10SM CLR M03/M04 A3016 RMK AO2 SLP213 T10331044 53001 FZRANO
PAGS 191356Z AUTO 00000KT 10SM CLR M03/M04 A3016 RMK AO2 SLP212 T10331044 FZRANO
PAGS 191256Z AUTO 00000KT 10SM CLR M03/M03 A3016 RMK AO2 SLP212 T10281033 FZRANO
PAGS 191156Z AUTO 36003KT 10SM CLR M03/M04 A3016 RMK AO2 SLP212 T10281039 10033 21028 58000 FZRANO
PAGS 191056Z AUTO 00000KT 10SM CLR M02/M04 A3016 RMK AO2 SLP213 T10221039 FZRANO
PAGS 190956Z AUTO 00000KT 10SM CLR M02/M03 A3016 RMK AO2 SLP213 T10171033 FZRANO
PAGS 190856Z AUTO 00000KT 10SM CLR M01/M02 A3016 RMK AO2 SLP212 T10061022 401671039 52003 FZRANO
PAGS 190756Z AUTO 00000KT 10SM CLR 01/M01 A3015 RMK AO2 SLP211 T00111011 FZRANO
PAGS 190656Z AUTO 00000KT 10SM CLR 02/M01 A3015 RMK AO2 SLP211 T00171006 FZRANO
PAGS 190556Z AUTO 00000KT 10SM CLR 03/01 A3015 RMK AO2 SLP210 T00330006 10167 20033 51006
PAGS 190456Z AUTO 00000KT 10SM CLR 05/02 A3014 RMK AO2 SLP208 T00500022
PAGS 190356Z AUTO 00000KT 10SM CLR 08/04 A3014 RMK AO2 SLP206 T00780039
PAGS 190256Z AUTO 23004KT 10SM CLR 10/06 A3013 RMK AO2 SLP204 T01000056 56005
PAGS 190156Z AUTO 21003KT 10SM CLR 13/04 A3013 RMK AO2 SLP204 T01330044
PAGS 190056Z AUTO 32004KT 10SM CLR 17/M01 A3014 RMK AO2 SLP206 T01671011
PAGS 182356Z AUTO VRB05KT 10SM CLR 16/03 A3015 RMK AO2 SLP209 T01610028 10167 20094 57012
PAGS 182256Z AUTO 22004KT 10SM CLR 14/04 A3016 RMK AO2 SLP212 T01440044
PAGS 182156Z AUTO 19005KT 10SM CLR 13/03 A3017 RMK AO2 SLP217 T01330033